Time;durP1;ratioP1;P1;durP2;ratioP2;P2;SDS_P1;SDS_P2;PMS_P1;PMS_P2;Temp;Humidity;BMP_temperature;BMP_pressure;BME280_temperature;BME280_humidity;BME280_pressure;Samples;Min_cycle;Max_cycle;Signal;HPM_P1;HPM_P2
2023/03/12 00:00:21;563722.00;1.88;971.62;22431.00;0.07;39.48;;;;;11.00;1.00;;;;;;2276226;61;1567;-87
2023/03/12 00:02:55;605345.00;2.02;1043.45;0.00;0.00;0.62;;;;;10.50;1.00;;;;;;2276410;61;1673;-88
2023/03/12 00:05:24;437960.00;1.46;755.07;0.00;0.00;0.62;;;;;10.10;1.00;;;;;;2276186;61;1620;-88
2023/03/12 00:07:52;290207.00;0.97;501.09;0.00;0.00;0.62;;;;;10.20;1.00;;;;;;2276225;61;1658;-88
2023/03/12 00:10:21;345922.00;1.15;596.85;0.00;0.00;0.62;;;;;10.20;1.00;;;;;;2276308;61;1360;-86
2023/03/12 00:12:52;406635.00;1.36;701.21;42357.00;0.14;73.97;;;;;9.90;1.00;;;;;;2276276;61;1462;-87
2023/03/12 00:15:24;313995.00;1.05;541.98;0.00;0.00;0.62;;;;;9.90;1.00;;;;;;2276304;61;1005;-87
2023/03/12 00:17:53;440313.00;1.47;759.12;0.00;0.00;0.62;;;;;9.80;1.00;;;;;;2276260;61;1923;-85
2023/03/12 00:20:22;525553.00;1.75;905.83;0.00;0.00;0.62;;;;;9.30;1.00;;;;;;2276191;61;1716;-85
2023/03/12 00:22:49;312155.00;1.04;538.81;0.00;0.00;0.62;;;;;9.30;1.00;;;;;;2276321;61;919;-86
2023/03/12 00:25:17;353290.00;1.18;609.52;0.00;0.00;0.62;;;;;8.90;1.00;;;;;;2276306;61;1011;-87
2023/03/12 00:27:44;325730.00;1.09;562.15;0.00;0.00;0.62;;;;;8.70;1.00;;;;;;2276356;61;1136;-87
2023/03/12 00:30:12;290415.00;0.97;501.44;0.00;0.00;0.62;;;;;8.70;1.00;;;;;;2276279;61;1432;-86
2023/03/12 00:32:40;421846.00;1.41;727.36;0.00;0.00;0.62;;;;;8.80;1.00;;;;;;2276409;61;922;-88
2023/03/12 00:35:09;537782.00;1.79;926.90;0.00;0.00;0.62;;;;;8.70;1.00;;;;;;2276305;61;956;-84
2023/03/12 00:37:39;424477.00;1.41;731.89;0.00;0.00;0.62;;;;;9.10;1.00;;;;;;2276225;61;1249;-85
2023/03/12 00:40:10;347027.00;1.16;598.75;0.00;0.00;0.62;;;;;8.80;1.00;;;;;;2276242;61;1339;-86
2023/03/12 00:42:38;334671.00;1.12;577.51;0.00;0.00;0.62;;;;;9.30;1.00;;;;;;2276262;61;1528;-85
2023/03/12 00:45:09;329141.00;1.10;568.01;0.00;0.00;0.62;;;;;9.90;1.00;;;;;;2276208;61;1613;-86
2023/03/12 00:47:40;416459.00;1.39;718.10;0.00;0.00;0.62;;;;;10.30;1.00;;;;;;2276260;61;902;-85
2023/03/12 00:50:10;701801.00;2.34;1210.36;82677.00;0.28;143.66;;;;;10.00;1.00;;;;;;2276250;61;1413;-87
2023/03/12 00:52:37;431589.00;1.44;744.12;99152.00;0.33;172.11;;;;;10.20;1.00;;;;;;2276077;61;1594;-87
2023/03/12 00:55:07;546050.00;1.82;941.15;104022.00;0.35;180.51;;;;;10.20;1.00;;;;;;2276277;61;1006;-87
2023/03/12 00:57:34;678563.00;2.26;1170.08;91259.00;0.30;158.48;;;;;10.20;1.00;;;;;;2276136;61;1732;-89
2023/03/12 01:00:08;568993.00;1.90;980.71;91797.00;0.31;159.41;;;;;10.50;1.00;;;;;;2272455;61;1989;-86
2023/03/12 01:02:40;703527.00;2.35;1213.36;115522.00;0.39;200.36;;;;;10.10;1.00;;;;;;2276179;61;2295;-87
2023/03/12 01:05:14;724459.00;2.41;1249.68;99303.00;0.33;172.37;;;;;10.00;1.00;;;;;;2276146;61;1481;-86
2023/03/12 01:07:44;1244182.00;4.15;2170.31;148675.00;0.50;257.52;;;;;9.80;1.00;;;;;;2276138;61;1453;-86
2023/03/12 01:10:14;1384097.00;4.61;2426.86;134242.00;0.45;232.64;;;;;9.50;1.00;;;;;;2276138;61;1751;-87
2023/03/12 01:12:49;1859361.00;6.20;3339.43;197895.00;0.66;342.30;;;;;9.10;1.00;;;;;;2276219;61;1027;-87
2023/03/12 01:15:20;983643.00;3.28;1703.52;75348.00;0.25;131.00;;;;;9.70;1.00;;;;;;2276138;61;1797;-87
2023/03/12 01:17:47;1530123.00;5.10;2699.93;113095.00;0.38;196.17;;;;;9.50;1.00;;;;;;2276192;61;1612;-87
2023/03/12 01:20:18;1195599.00;3.99;2082.27;8787.00;0.03;15.85;;;;;9.50;1.00;;;;;;2275690;61;1927;-86
2023/03/12 01:22:45;1934344.00;6.45;3490.37;197492.00;0.66;341.61;;;;;9.70;1.00;;;;;;2276150;61;960;-86
2023/03/12 01:25:15;1218024.00;4.06;2122.84;19418.00;0.06;34.26;;;;;9.30;1.00;;;;;;2276090;61;1588;-86
2023/03/12 01:27:45;1108999.00;3.70;1926.52;41742.00;0.14;72.90;;;;;9.50;1.00;;;;;;2276184;61;969;-87
2023/03/12 01:30:22;1126605.00;3.76;1958.07;768.00;0.00;1.95;;;;;9.90;1.00;;;;;;2276060;61;1637;-87
2023/03/12 01:32:50;586522.00;1.96;1010.95;42075.00;0.14;73.48;;;;;10.10;1.00;;;;;;2276085;61;1607;-88
2023/03/12 01:35:21;462550.00;1.54;797.37;0.00;0.00;0.62;;;;;9.90;1.00;;;;;;2275999;61;1543;-86
2023/03/12 01:38:02;386648.00;1.29;666.85;0.00;0.00;0.62;;;;;9.80;1.00;;;;;;2276102;61;1642;-86
2023/03/12 01:40:29;315115.00;1.05;543.90;0.00;0.00;0.62;;;;;9.70;1.00;;;;;;2275977;61;1621;-86
2023/03/12 01:43:00;547144.00;1.82;943.04;0.00;0.00;0.62;;;;;9.80;1.00;;;;;;2275893;61;1608;-85
2023/03/12 01:46:04;686811.00;2.29;1184.37;0.00;0.00;0.62;;;;;9.30;1.00;;;;;;2275990;61;1576;-87
2023/03/12 01:48:38;333567.00;1.11;575.62;0.00;0.00;0.62;;;;;9.60;1.00;;;;;;2276142;61;1086;-87
2023/03/12 01:51:11;515942.00;1.72;889.28;0.00;0.00;0.62;;;;;9.00;1.00;;;;;;2276142;61;1344;-86
2023/03/12 01:53:41;401972.00;1.34;693.20;0.00;0.00;0.62;;;;;8.90;1.00;;;;;;2276021;61;1884;-86
2023/03/12 01:56:21;458505.00;1.53;790.41;0.00;0.00;0.62;;;;;9.00;1.00;;;;;;2276023;61;970;-85
2023/03/12 01:58:53;349862.00;1.17;603.62;0.00;0.00;0.62;;;;;9.20;1.00;;;;;;2276020;61;1932;-86
2023/03/12 02:01:25;491297.00;1.64;846.84;14643.00;0.05;25.99;;;;;8.90;1.00;;;;;;2275918;61;1316;-87
2023/03/12 02:03:59;381875.00;1.27;658.65;0.00;0.00;0.62;;;;;8.90;1.00;;;;;;2275817;61;994;-85
2023/03/12 02:06:42;477037.00;1.59;822.30;34470.00;0.11;60.32;;;;;8.20;1.00;;;;;;2275815;61;1742;-85
2023/03/12 02:09:11;357800.00;1.19;617.27;0.00;0.00;0.62;;;;;8.40;1.00;;;;;;2275796;61;1733;-88
2023/03/12 02:11:38;466025.00;1.55;803.35;0.00;0.00;0.62;;;;;8.10;1.00;;;;;;2276036;61;1722;-87
2023/03/12 02:16:35;1181330.00;3.94;2056.50;0.00;0.00;0.62;;;;;7.50;1.00;;;;;;2281361;60;1431;-88
2023/03/12 02:19:08;513284.00;1.71;884.70;0.00;0.00;0.62;;;;;7.20;1.00;;;;;;2279842;60;1990;-87
2023/03/12 02:21:39;505553.00;1.69;871.38;15635.00;0.05;27.71;;;;;7.50;1.00;;;;;;2275957;61;2304;-88
2023/03/12 02:24:24;371233.00;1.24;640.36;0.00;0.00;0.62;;;;;8.10;1.00;;;;;;2276027;61;993;-88
2023/03/12 02:26:53;549795.00;1.83;947.61;0.00;0.00;0.62;;;;;8.50;1.00;;;;;;2275917;61;879;-87
2023/03/12 02:29:20;307197.00;1.02;530.29;0.00;0.00;0.62;;;;;8.00;1.00;;;;;;2275899;61;1361;-86
2023/03/12 02:31:58;486572.00;1.62;838.71;0.00;0.00;0.62;;;;;7.70;1.00;;;;;;2275844;61;1710;-87
2023/03/12 02:34:28;545602.00;1.82;940.38;17779.00;0.06;31.42;;;;;7.90;1.00;;;;;;2275871;61;1688;-87
2023/03/12 02:36:56;507839.00;1.69;875.32;0.00;0.00;0.62;;;;;8.40;1.00;;;;;;2275942;61;1632;-87
2023/03/12 02:39:23;473587.00;1.58;816.36;0.00;0.00;0.62;;;;;9.20;1.00;;;;;;2275773;61;2002;-85
2023/03/12 02:41:56;515184.00;1.72;887.97;35279.00;0.12;61.72;;;;;9.00;1.00;;;;;;2275850;61;992;-87
2023/03/12 02:44:25;553321.00;1.84;953.68;42133.00;0.14;73.58;;;;;8.40;1.00;;;;;;2275938;61;1409;-88
2023/03/12 02:46:54;458101.00;1.53;789.72;0.00;0.00;0.62;;;;;7.90;1.00;;;;;;2275923;61;1029;-88
2023/03/12 02:49:29;552275.00;1.84;951.88;0.00;0.00;0.62;;;;;7.90;1.00;;;;;;2275743;61;1698;-88
2023/03/12 02:52:00;657762.00;2.19;1134.07;102317.00;0.34;177.57;;;;;8.30;1.00;;;;;;2275959;61;1064;-87
2023/03/12 02:54:33;713996.00;2.38;1231.52;96731.00;0.32;167.93;;;;;8.80;1.00;;;;;;2275862;61;1656;-86
2023/03/12 02:57:01;767911.00;2.56;1325.22;82712.00;0.28;143.72;;;;;9.00;1.00;;;;;;2275886;61;996;-86
2023/03/12 02:59:28;874306.00;2.91;1511.04;94075.00;0.31;163.34;;;;;9.10;1.00;;;;;;2275657;61;1996;-87
2023/03/12 03:01:58;799708.00;2.67;1380.61;79473.00;0.26;138.13;;;;;8.90;1.00;;;;;;2275860;61;1431;-88
2023/03/12 03:04:26;494609.00;1.65;852.54;102347.00;0.34;177.62;;;;;8.70;1.00;;;;;;2275867;61;1473;-87
2023/03/12 03:07:01;617653.00;2.06;1064.71;92323.00;0.31;160.32;;;;;8.30;1.00;;;;;;2275856;61;973;-86
2023/03/12 03:09:28;763025.00;2.54;1316.71;102340.00;0.34;177.61;;;;;8.50;1.00;;;;;;2275921;61;1618;-87
2023/03/12 03:11:58;920999.00;3.07;1593.03;138269.00;0.46;239.59;;;;;8.10;1.00;;;;;;2275759;61;1581;-86
2023/03/12 03:14:27;925532.00;3.09;1601.01;98140.00;0.33;170.36;;;;;8.00;1.00;;;;;;2275656;61;1480;-88
2023/03/12 03:19:26;124385280.00;414.62;77965944.00;212630.00;0.71;367.66;;;;;8.30;1.00;;;;;;2278432;61;1969;-87
2023/03/12 03:21:59;1331252.00;4.44;2329.42;219954.00;0.73;380.26;;;;;8.10;1.00;;;;;;2276492;61;1062;-87
2023/03/12 03:24:27;1676444.00;5.59;2979.75;169429.00;0.56;293.28;;;;;8.50;1.00;;;;;;2276415;61;1616;-87
2023/03/12 03:26:54;1602280.00;5.34;2837.10;55398.00;0.18;96.52;;;;;7.90;1.00;;;;;;2276476;61;1269;-86
2023/03/12 03:29:23;1346045.00;4.49;2356.62;95621.00;0.32;166.01;;;;;7.60;1.00;;;;;;2276425;61;1517;-86
2023/03/12 03:31:52;1132987.00;3.78;1969.52;36069.00;0.12;63.09;;;;;7.70;1.00;;;;;;2276444;61;1768;-85
2023/03/12 03:36:50;1711248.00;5.70;3047.30;68817.00;0.23;119.72;;;;;7.80;1.00;;;;;;2282245;60;1374;-86
2023/03/12 03:39:17;1281956.00;4.27;2239.12;44939.00;0.15;78.43;;;;;8.40;1.00;;;;;;2279768;60;2002;-84
2023/03/12 03:41:50;1120996.00;3.74;1948.01;72568.00;0.24;126.20;;;;;9.00;1.00;;;;;;2276386;61;1004;-87
2023/03/12 03:44:23;1083052.00;3.61;1880.14;27490.00;0.09;48.24;;;;;8.80;1.00;;;;;;2276346;61;1567;-86
2023/03/12 03:49:33;415345.00;1.38;716.19;0.00;0.00;0.62;;;;;8.10;1.00;;;;;;2276059;61;1619;-87
2023/03/12 03:52:00;395868.00;1.32;682.70;0.00;0.00;0.62;;;;;7.30;1.00;;;;;;2276456;61;1055;-85
2023/03/12 03:54:33;486862.00;1.62;839.21;0.00;0.00;0.62;;;;;7.40;1.00;;;;;;2276446;61;1477;-86
2023/03/12 03:57:05;414915.00;1.38;715.45;0.00;0.00;0.62;;;;;7.10;1.00;;;;;;2276440;61;1630;-87
2023/03/12 03:59:36;484010.00;1.61;834.30;0.00;0.00;0.62;;;;;7.00;1.00;;;;;;2276385;61;2005;-88
2023/03/12 04:02:08;665391.00;2.22;1147.27;0.00;0.00;0.62;;;;;7.20;1.00;;;;;;2311422;56;3781;-86
2023/03/12 04:04:38;341735.00;1.14;589.66;0.00;0.00;0.62;;;;;7.60;1.00;;;;;;2280679;61;1671;-86
2023/03/12 04:09:44;963360.00;3.21;1667.68;0.00;0.00;0.62;;;;;7.30;1.00;;;;;;2281453;60;1376;-87
2023/03/12 04:12:11;356865.00;1.19;615.66;0.00;0.00;0.62;;;;;7.30;1.00;;;;;;2276643;61;1448;-87
2023/03/12 04:14:43;372043.00;1.24;641.75;38992.00;0.13;68.14;;;;;7.60;1.00;;;;;;2276731;61;964;-87
2023/03/12 04:17:14;731964.00;2.44;1262.71;76725.00;0.26;133.38;;;;;7.30;1.00;;;;;;2276604;61;1514;-87
2023/03/12 04:19:41;491016.00;1.64;846.36;0.00;0.00;0.62;;;;;6.60;1.00;;;;;;2302027;56;3804;-87
2023/03/12 04:22:14;440079.00;1.47;758.72;0.00;0.00;0.62;;;;;6.90;1.00;;;;;;2276581;61;1641;-88
2023/03/12 04:24:47;394339.00;1.31;680.07;0.00;0.00;0.62;;;;;7.30;1.00;;;;;;2276630;61;1026;-89
2023/03/12 04:27:14;388038.00;1.29;669.24;0.00;0.00;0.62;;;;;7.10;1.00;;;;;;2309775;39;3703;-85
2023/03/12 04:29:42;503154.00;1.68;867.25;14680.00;0.05;26.06;;;;;7.30;1.00;;;;;;2279239;61;1504;-87
2023/03/12 04:32:11;407120.00;1.36;702.05;0.00;0.00;0.62;;;;;7.00;1.00;;;;;;2276559;61;1692;-86
2023/03/12 04:34:40;606463.00;2.02;1045.38;0.00;0.00;0.62;;;;;7.60;1.00;;;;;;2276472;61;1526;-87
2023/03/12 04:37:07;461277.00;1.54;795.18;39954.00;0.13;69.81;;;;;7.90;1.00;;;;;;2276554;61;1670;-87
2023/03/12 04:39:45;412098.00;1.37;710.60;0.00;0.00;0.62;;;;;8.30;1.00;;;;;;2276502;61;1923;-85
2023/03/12 04:42:13;407305.00;1.36;702.36;0.00;0.00;0.62;;;;;8.30;1.00;;;;;;2276557;61;1074;-85
2023/03/12 04:44:42;476107.00;1.59;820.70;0.00;0.00;0.62;;;;;8.50;1.00;;;;;;2285704;55;3763;-85
2023/03/12 04:47:14;344431.00;1.15;594.29;0.00;0.00;0.62;;;;;8.30;1.00;;;;;;2284683;60;1550;-85
2023/03/12 04:49:42;122375152.00;407.92;74243368.00;0.00;0.00;0.62;;;;;8.00;1.00;;;;;;2283367;60;1594;-86
2023/03/12 04:52:10;370773.00;1.24;639.57;0.00;0.00;0.62;;;;;8.00;1.00;;;;;;2280468;61;1424;-86
2023/03/12 04:54:38;388412.00;1.29;669.89;0.00;0.00;0.62;;;;;8.50;1.00;;;;;;2280542;61;904;-87
2023/03/12 04:59:52;990732.00;3.30;1716.06;0.00;0.00;0.62;;;;;8.30;1.00;;;;;;2328741;40;3417;-86
2023/03/12 05:05:00;943394.00;3.14;1632.47;0.00;0.00;0.62;;;;;9.00;1.00;;;;;;2282412;61;1668;-85
2023/03/12 05:07:31;715171.00;2.38;1233.56;149882.00;0.50;259.60;;;;;8.60;1.00;;;;;;2285528;55;3751;-86
2023/03/12 05:10:00;981148.00;3.27;1699.11;93040.00;0.31;161.56;;;;;8.30;1.00;;;;;;2278036;60;1722;-87
2023/03/12 05:15:12;1785184.00;5.95;3192.16;316793.00;1.06;546.79;;;;;8.10;1.00;;;;;;2267790;61;1017;-88
2023/03/12 05:22:51;1220008.00;4.07;2126.44;27078.00;0.09;47.53;;;;;7.20;1.00;;;;;;2391065;40;1856;-88
2023/03/12 05:27:54;1521669.00;5.07;2683.96;83194.00;0.28;144.55;;;;;7.20;1.00;;;;;;1947818;56;3529;-87
2023/03/12 05:30:24;1128749.00;3.76;1961.91;66066.00;0.22;114.96;;;;;7.50;1.00;;;;;;2277827;61;1814;-85
2023/03/12 05:32:54;653038.00;2.18;1125.89;41603.00;0.14;72.66;;;;;7.50;1.00;;;;;;2276372;61;1566;-87
2023/03/12 05:40:30;1060889.00;3.54;1840.62;0.00;0.00;0.62;;;;;6.60;1.00;;;;;;2279272;60;1903;-88
2023/03/12 05:42:59;278446.00;0.93;480.87;0.00;0.00;0.62;;;;;6.70;1.00;;;;;;2276435;61;1550;-88
2023/03/12 05:48:00;936149.00;3.12;1619.70;0.00;0.00;0.62;;;;;7.10;1.00;;;;;;2281966;60;1395;-86
2023/03/12 05:50:29;541616.00;1.81;933.51;0.00;0.00;0.62;;;;;6.80;1.00;;;;;;2277604;60;1755;-86
2023/03/12 05:58:11;999387.00;3.33;1731.39;0.00;0.00;0.62;;;;;5.90;1.00;;;;;;2294298;39;3695;-86
2023/03/12 06:03:07;1108555.00;3.70;1925.73;0.00;0.00;0.62;;;;;5.80;1.00;;;;;;2283336;39;3472;-87
2023/03/12 06:05:43;118454176.00;394.85;67327128.00;0.00;0.00;0.62;;;;;6.30;1.00;;;;;;2288679;55;3798;-87
2023/03/12 06:08:10;363970.00;1.21;627.87;0.00;0.00;0.62;;;;;6.90;1.00;;;;;;2284338;60;1747;-87
2023/03/12 06:10:38;507446.00;1.69;874.64;0.00;0.00;0.62;;;;;7.20;1.00;;;;;;2281377;60;1410;-87
2023/03/12 06:13:07;519450.00;1.73;895.32;0.00;0.00;0.62;;;;;7.50;1.00;;;;;;2280283;61;934;-87
2023/03/12 06:15:44;403091.00;1.34;695.12;0.00;0.00;0.62;;;;;7.10;1.00;;;;;;2280255;61;1774;-87
2023/03/12 06:18:11;384344.00;1.28;662.89;0.00;0.00;0.62;;;;;7.50;1.00;;;;;;2359917;55;3735;-88
2023/03/12 06:20:52;334503.00;1.12;577.23;0.00;0.00;0.62;;;;;7.60;1.00;;;;;;2277875;61;1997;-88
2023/03/12 06:23:20;379801.00;1.27;655.08;0.00;0.00;0.62;;;;;8.00;1.00;;;;;;2272742;61;1210;-90
2023/03/12 06:25:53;566371.00;1.89;976.19;40484.00;0.13;70.73;;;;;7.90;1.00;;;;;;2272752;61;1560;-88
2023/03/12 06:31:04;641328.00;2.14;1105.64;0.00;0.00;0.62;;;;;8.10;1.00;;;;;;2279277;61;1345;-87
2023/03/12 09:37:53;702963.00;2.34;1212.38;0.00;0.00;0.62;;;;;12.50;1.00;;;;;;2279038;61;990;-90
2023/03/12 11:47:49;871512.00;2.91;1506.14;0.00;0.00;0.62;;;;;14.30;1.00;;;;;;2329606;56;3575;-88
2023/03/12 12:13:10;1291461.00;4.30;2256.49;99235.00;0.33;172.25;;;;;15.60;1.00;;;;;;1586353;39;3556;-87
2023/03/12 13:19:36;328526.00;1.10;566.95;0.00;0.00;0.62;;;;;15.50;1.00;;;;;;2432592;40;3209;31
2023/03/12 13:47:44;582081.00;1.94;1003.29;0.00;0.00;0.62;;;;;16.40;1.00;;;;;;2289731;55;3624;-87
2023/03/12 13:57:47;787360.00;2.62;1359.09;0.00;0.00;0.62;;;;;15.30;1.00;;;;;;2312129;39;3498;-87
2023/03/12 14:17:45;797509.00;2.66;1376.78;0.00;0.00;0.62;;;;;15.50;1.00;;;;;;2310577;55;3708;-87
2023/03/12 15:00:27;205074.00;0.68;354.66;0.00;0.00;0.62;;;;;15.00;1.00;;;;;;2434498;40;3322;31
2023/03/12 15:28:33;895534.00;2.99;1548.28;6705.00;0.02;12.24;;;;;15.40;1.00;;;;;;2282417;60;1423;-90
2023/03/12 15:31:13;426648.00;1.42;735.62;54571.00;0.18;95.09;;;;;15.50;1.00;;;;;;2331779;56;3769;-86
2023/03/12 15:34:02;422652.00;1.41;728.75;0.00;0.00;0.62;;;;;15.50;1.00;;;;;;2296440;55;3761;-88
2023/03/12 15:36:35;388795.00;1.30;670.54;16755.00;0.06;29.65;;;;;15.40;1.00;;;;;;2284797;60;1492;-88
2023/03/12 15:39:25;253345.00;0.84;437.70;0.00;0.00;0.62;;;;;15.70;1.00;;;;;;2284846;60;1638;-87
2023/03/12 15:42:15;271663.00;0.91;469.20;0.00;0.00;0.62;;;;;15.90;1.00;;;;;;2280607;61;2005;-88
2023/03/12 15:44:53;301949.00;1.01;521.27;0.00;0.00;0.62;;;;;15.80;1.00;;;;;;2280673;61;1663;-89
2023/03/12 15:47:23;123295.00;0.41;213.77;0.00;0.00;0.62;;;;;16.00;1.00;;;;;;2325706;55;3755;-86
2023/03/12 15:49:57;317165.00;1.06;547.43;78498.00;0.26;136.44;;;;;16.00;1.00;;;;;;2279162;61;1456;-89
2023/03/12 15:52:35;377436.00;1.26;651.02;20941.00;0.07;36.90;;;;;15.70;1.00;;;;;;2276614;61;1604;-88
2023/03/12 15:55:26;609523.00;2.03;1050.67;89218.00;0.30;154.96;;;;;15.50;1.00;;;;;;2276681;61;1649;-87
2023/03/12 15:58:01;670393.00;2.23;1155.93;90640.00;0.30;157.41;;;;;15.70;1.00;;;;;;2276637;61;1467;-89
2023/03/12 16:03:25;1243650.00;4.15;2169.34;88343.00;0.29;153.45;;;;;15.90;1.00;;;;;;2282473;60;1387;-87
2023/03/12 16:05:54;694447.00;2.31;1197.61;0.00;0.00;0.62;;;;;15.50;1.00;;;;;;2280542;60;1397;-89
2023/03/12 16:08:35;718363.00;2.39;1239.10;0.00;0.00;0.62;;;;;15.50;1.00;;;;;;2312027;40;3606;-89
2023/03/12 16:11:18;556663.00;1.86;959.45;0.00;0.00;0.62;;;;;15.50;1.00;;;;;;2276734;61;1625;-88
2023/03/12 16:23:59;368096.00;1.23;634.96;0.00;0.00;0.62;;;;;16.10;1.00;;;;;;609253;40;3211;-87
2023/03/12 16:26:38;245895.00;0.82;424.89;0.00;0.00;0.62;;;;;16.20;1.00;;;;;;2287822;55;3713;-87
2023/03/12 16:29:15;502750.00;1.68;866.56;23042.00;0.08;40.54;;;;;15.90;1.00;;;;;;2284509;60;1388;-86
2023/03/12 16:39:32;480547.00;1.60;828.34;0.00;0.00;0.62;;;;;15.50;1.00;;;;;;2299403;55;3689;-88
2023/03/12 16:44:37;800100.00;2.67;1381.30;0.00;0.00;0.62;;;;;15.60;1.00;;;;;;2330564;56;3624;-89
2023/03/12 16:47:13;232472.00;0.77;401.80;0.00;0.00;0.62;;;;;15.30;1.00;;;;;;2306582;55;3744;-87
2023/03/12 16:49:45;343578.00;1.15;592.82;0.00;0.00;0.62;;;;;15.10;1.00;;;;;;2279152;61;1314;-88
2023/03/12 16:52:27;235952.00;0.79;407.79;10548.00;0.04;18.90;;;;;15.00;1.00;;;;;;2276506;61;1678;-88
2023/03/12 16:55:00;351526.00;1.17;606.48;92549.00;0.31;160.71;;;;;15.10;1.00;;;;;;2276437;61;1704;-86
2023/03/12 16:57:32;551295.00;1.84;950.19;97983.00;0.33;170.09;;;;;14.80;1.00;;;;;;2285568;39;3693;-87
2023/03/12 17:00:08;363647.00;1.21;627.32;90548.00;0.30;157.25;;;;;14.90;1.00;;;;;;2282850;60;1483;-88
2023/03/12 17:05:19;774641.00;2.58;1336.93;0.00;0.00;0.62;;;;;14.90;1.00;;;;;;2280580;61;1502;-88
2023/03/12 17:10:21;1456025.00;4.85;2560.64;145733.00;0.49;252.45;;;;;14.60;1.00;;;;;;2280205;60;1402;-89
2023/03/12 17:12:51;768473.00;2.56;1326.19;19032.00;0.06;33.59;;;;;14.40;1.00;;;;;;2276513;61;1667;-89
2023/03/12 17:15:27;969488.00;3.23;1678.51;36657.00;0.12;64.10;;;;;14.50;1.00;;;;;;2276536;61;859;-89
2023/03/12 17:17:55;757124.00;2.52;1306.45;11950.00;0.04;21.33;;;;;14.70;1.00;;;;;;2276413;61;1713;-92
2023/03/12 17:20:25;875109.00;2.92;1512.44;24425.00;0.08;42.93;;;;;14.90;1.00;;;;;;2276453;61;1553;-88
2023/03/12 17:22:54;894381.00;2.98;1546.25;47439.00;0.16;82.76;;;;;14.80;1.00;;;;;;2276486;61;2003;-89
2023/03/12 17:25:27;692346.00;2.31;1193.97;0.00;0.00;0.62;;;;;14.70;1.00;;;;;;2276507;61;1506;-87
2023/03/12 17:27:58;646792.00;2.16;1115.09;28832.00;0.10;50.56;;;;;14.70;1.00;;;;;;2276444;61;1755;-89
2023/03/12 17:30:28;667693.00;2.23;1151.26;17116.00;0.06;30.28;;;;;14.80;1.00;;;;;;2276352;61;1515;-87
2023/03/12 17:33:04;613342.00;2.04;1057.26;0.00;0.00;0.62;;;;;14.70;1.00;;;;;;2276365;61;1571;-92
2023/03/12 17:35:33;449246.00;1.50;774.49;0.00;0.00;0.62;;;;;14.50;1.00;;;;;;2276398;61;1432;-88
2023/03/12 17:38:00;620615.00;2.07;1069.83;58637.00;0.20;102.12;;;;;14.50;1.00;;;;;;2276402;61;975;-88
2023/03/12 17:40:30;237803.00;0.79;410.97;0.00;0.00;0.62;;;;;14.50;1.00;;;;;;2276388;61;1648;-90
2023/03/12 17:42:57;217187.00;0.72;375.50;0.00;0.00;0.62;;;;;14.70;1.00;;;;;;2276333;61;1987;-87
2023/03/12 17:45:24;306957.00;1.02;529.88;0.00;0.00;0.62;;;;;14.80;1.00;;;;;;2276275;61;1428;-87
2023/03/12 17:47:52;124585.00;0.42;215.99;0.00;0.00;0.62;;;;;14.80;1.00;;;;;;2276371;61;1608;-87
2023/03/12 17:52:54;728025.00;2.43;1255.87;0.00;0.00;0.62;;;;;14.50;1.00;;;;;;2279122;61;1204;-87
2023/03/12 17:55:24;483545.00;1.61;833.50;70520.00;0.24;122.66;;;;;14.30;1.00;;;;;;2276998;61;907;-88
2023/03/12 17:57:57;213046.00;0.71;368.38;0.00;0.00;0.62;;;;;14.30;1.00;;;;;;2280362;55;3772;-89
2023/03/12 18:02:56;739238.00;2.46;1275.35;0.00;0.00;0.62;;;;;14.20;1.00;;;;;;2273989;61;1920;-89
2023/03/12 18:05:26;628493.00;2.09;1083.44;0.00;0.00;0.62;;;;;14.00;1.00;;;;;;2294739;56;3793;-87
2023/03/12 18:07:56;281492.00;0.94;486.10;0.00;0.00;0.62;;;;;14.00;1.00;;;;;;2280349;60;1138;-87
2023/03/12 18:10:25;722564.00;2.41;1246.39;0.00;0.00;0.62;;;;;13.90;1.00;;;;;;2277620;60;1590;-87
2023/03/12 18:12:54;249254.00;0.83;430.67;39855.00;0.13;69.64;;;;;14.20;1.00;;;;;;2276293;61;1580;-88
2023/03/12 18:15:25;248490.00;0.83;429.35;0.00;0.00;0.62;;;;;14.00;1.00;;;;;;2276199;61;1699;-89
2023/03/12 18:18:03;372807.00;1.24;643.06;55058.00;0.18;95.93;;;;;14.10;1.00;;;;;;2276096;61;1630;-89
2023/03/12 18:23:01;1018761.00;3.40;1765.73;0.00;0.00;0.62;;;;;14.10;1.00;;;;;;2273959;61;1906;-88
2023/03/12 18:25:45;216627.00;0.72;374.54;0.00;0.00;0.62;;;;;14.30;1.00;;;;;;2272206;61;1579;-87
2023/03/12 18:28:18;128956.00;0.43;223.53;0.00;0.00;0.62;;;;;14.30;1.00;;;;;;2272190;61;2270;-87
2023/03/12 18:30:50;181246.00;0.60;313.64;0.00;0.00;0.62;;;;;14.30;1.00;;;;;;2272063;61;1681;-88
2023/03/12 18:33:26;272566.00;0.91;470.76;0.00;0.00;0.62;;;;;14.40;1.00;;;;;;2272227;61;957;-89
2023/03/12 18:35:57;95625.00;0.32;166.02;0.00;0.00;0.62;;;;;14.40;1.00;;;;;;2272215;61;1548;-88
2023/03/12 18:38:30;176035.00;0.59;304.66;0.00;0.00;0.62;;;;;14.30;1.00;;;;;;2272244;61;1127;-89
2023/03/12 18:41:12;346163.00;1.15;597.27;0.00;0.00;0.62;;;;;14.20;1.00;;;;;;2272081;61;1946;-88
2023/03/12 18:43:44;419001.00;1.40;722.47;90730.00;0.30;157.57;;;;;14.20;1.00;;;;;;2272205;61;1634;-89
2023/03/12 18:46:17;628499.00;2.09;1083.45;93886.00;0.31;163.02;;;;;14.20;1.00;;;;;;2272299;61;1541;-88
2023/03/12 18:51:35;1816455.00;6.05;3254.01;72734.00;0.24;126.48;;;;;14.00;1.00;;;;;;2278369;61;1436;-87
2023/03/12 18:54:07;950867.00;3.17;1645.64;58544.00;0.20;101.96;;;;;14.00;1.00;;;;;;2276836;61;1597;-88
2023/03/12 18:59:07;1149572.00;3.83;1999.31;13282.00;0.04;23.63;;;;;14.10;1.00;;;;;;2282145;60;1429;-88
2023/03/12 19:01:37;624851.00;2.08;1077.15;47494.00;0.16;82.85;;;;;14.20;1.00;;;;;;2276955;61;1919;-88
2023/03/12 19:04:11;557101.00;1.86;960.20;0.00;0.00;0.62;;;;;13.90;1.00;;;;;;2276839;61;1615;-89
2023/03/12 19:06:39;583530.00;1.95;1005.79;18314.00;0.06;32.35;;;;;13.80;1.00;;;;;;2276853;61;1145;-87
2023/03/12 19:09:09;142383.00;0.47;246.68;0.00;0.00;0.62;;;;;13.60;1.00;;;;;;2276850;61;1575;-86
2023/03/12 19:11:39;310694.00;1.04;536.30;0.00;0.00;0.62;;;;;13.70;1.00;;;;;;2276949;61;1170;-87
2023/03/12 19:14:13;342438.00;1.14;590.86;0.00;0.00;0.62;;;;;13.90;1.00;;;;;;2276779;61;1554;-88
2023/03/12 19:16:42;358425.00;1.19;618.34;56423.00;0.19;98.29;;;;;13.90;1.00;;;;;;2276798;61;1693;-87
2023/03/12 19:19:10;324425.00;1.08;559.90;0.00;0.00;0.62;;;;;13.90;1.00;;;;;;2276848;61;1589;-88
2023/03/12 19:21:46;317512.00;1.06;548.02;37603.00;0.13;65.74;;;;;13.90;1.00;;;;;;2276836;61;2016;-87
2023/03/12 19:24:13;270073.00;0.90;466.47;0.00;0.00;0.62;;;;;13.80;1.00;;;;;;2276950;61;1296;-84
2023/03/12 19:26:44;50261.00;0.17;87.64;0.00;0.00;0.62;;;;;13.70;1.00;;;;;;2276790;61;1482;-87
2023/03/12 19:29:19;392769.00;1.31;677.37;0.00;0.00;0.62;;;;;13.80;1.00;;;;;;2276677;61;1587;-86
2023/03/12 19:31:52;265123.00;0.88;457.96;0.00;0.00;0.62;;;;;13.90;1.00;;;;;;2276866;61;1017;-88
2023/03/12 19:34:22;338562.00;1.13;584.20;0.00;0.00;0.62;;;;;13.80;1.00;;;;;;2276759;61;1594;-87
2023/03/12 19:36:49;119580592.00;398.60;69267920.00;0.00;0.00;0.62;;;;;13.80;1.00;;;;;;2276716;61;1776;-88
2023/03/12 19:39:17;352404.00;1.17;607.99;33792.00;0.11;59.15;;;;;13.70;1.00;;;;;;2276651;61;1553;-85
2023/03/12 19:41:50;593597.00;1.98;1023.17;55537.00;0.19;96.76;;;;;13.70;1.00;;;;;;2346532;55;3719;-86
2023/03/12 19:49:39;200626.00;0.67;347.00;0.00;0.00;0.62;;;;;13.80;1.00;;;;;;2279481;60;1526;-87
2023/03/12 19:52:19;191914.00;0.64;332.00;0.00;0.00;0.62;;;;;13.80;1.00;;;;;;2276664;61;1504;-88
2023/03/12 19:54:48;672764.00;2.24;1160.04;42701.00;0.14;74.56;;;;;13.80;1.00;;;;;;2276753;61;1690;-88
2023/03/12 19:57:27;268863.00;0.90;464.39;0.00;0.00;0.62;;;;;13.70;1.00;;;;;;2276621;61;1541;-88
2023/03/12 20:00:05;281980.00;0.94;486.94;98042.00;0.33;170.19;;;;;13.60;1.00;;;;;;2276698;61;1324;-86
2023/03/12 20:05:11;1161334.00;3.87;2020.47;90868.00;0.30;157.81;;;;;13.50;1.00;;;;;;2282165;60;1415;-89
2023/03/12 20:07:51;652054.00;2.17;1124.19;96642.00;0.32;167.78;;;;;13.50;1.00;;;;;;2280603;60;1488;-89
2023/03/12 20:10:29;608970.00;2.03;1049.71;0.00;0.00;0.62;;;;;13.40;1.00;;;;;;2278354;60;1758;-91
2023/03/12 20:13:01;755932.00;2.52;1304.37;14833.00;0.05;26.32;;;;;13.40;1.00;;;;;;2276613;61;1437;-87